CET,Max TemperatureF,Mean TemperatureF,Min TemperatureF,Max Dew PointF,MeanDew PointF,Min DewpointF,Max Humidity, Mean Humidity, Min Humidity, Max Sea Level PressureIn, Mean Sea Level PressureIn, Min Sea Level PressureIn, Max VisibilityMiles, Mean VisibilityMiles, Min VisibilityMiles, Max Wind SpeedMPH, Mean Wind SpeedMPH, Max Gust SpeedMPH,PrecipitationIn, CloudCover, Events, WindDirDegrees
2012-12-1,42,37,32,37,34,32,100,90,75,30.01,29.97,29.95,6,4,0,8,3,,0.00,6,Fog-Rain,217
2012-12-2,42,36,30,37,31,27,100,83,53,30.06,30.02,29.95,6,6,3,9,5,,0.00,4,,281
2012-12-3,53,42,30,50,39,28,100,87,71,30.06,29.90,29.68,6,6,4,18,6,32,0.00,8,Rain,220
2012-12-4,46,42,37,43,38,36,93,88,76,29.74,29.70,29.62,6,6,1,17,9,,0.00,6,Rain,269
2012-12-5,41,37,33,36,35,30,93,89,81,29.92,29.72,29.65,6,6,5,12,6,,0.00,7,Rain,279
2012-12-6,39,34,30,32,31,28,100,86,70,30.12,30.03,29.89,6,6,6,13,6,,0.00,6,,237
2012-12-7,42,37,32,39,34,32,100,90,76,29.86,29.63,29.53,6,6,1,18,12,28,0.00,7,Fog-Rain-Snow,244
2012-12-8,39,34,28,37,31,25,93,87,75,30.36,30.15,29.80,6,5,1,9,4,,0.00,7,Fog-Rain,360
2012-12-9,44,35,26,43,35,25,100,91,81,30.36,30.19,30.01,6,5,1,14,5,,0.00,7,Fog-Rain,241
2012-12-10,44,40,35,41,36,34,93,83,70,30.21,30.08,30.01,6,6,6,12,7,,0.00,7,Rain,298
2012-12-11,39,34,28,34,29,25,100,82,60,30.36,30.32,30.21,6,6,4,9,5,,0.00,4,,4
2012-12-12,35,29,23,28,24,21,100,88,60,30.36,30.17,29.95,6,5,2,12,4,,0.00,,,77
2012-12-13,41,32,23,39,29,19,100,89,80,29.92,29.74,29.62,6,5,3,8,5,,0.00,8,Rain,132
2012-12-14,53,47,41,50,44,39,100,90,76,29.59,29.36,29.18,6,6,2,23,12,32,0.00,8,Rain,174
2012-12-15,53,50,46,46,44,41,93,83,71,29.65,29.51,29.33,6,6,3,18,14,,0.00,6,Rain,213
2012-12-16,51,48,46,45,43,41,93,81,67,29.74,29.70,29.65,6,6,6,18,14,,0.00,6,Rain,217
2012-12-17,50,46,41,45,42,37,93,83,66,29.83,29.73,29.68,6,6,6,17,10,,0.00,7,,236
2012-12-18,48,45,42,45,40,37,100,85,71,30.15,29.97,29.83,6,6,1,10,6,,0.00,7,Rain,271
2012-12-19,46,42,37,41,38,36,93,84,66,30.15,30.10,29.98,6,6,1,13,4,,0.00,8,Rain,120
2012-12-20,50,46,42,48,44,41,100,94,87,29.98,29.78,29.68,6,5,1,12,8,,0.00,8,Rain,163
2012-12-21,50,46,42,46,44,39,93,88,82,30.09,29.91,29.77,6,6,6,14,8,,0.00,7,,245
2012-12-22,59,50,41,55,47,41,100,94,82,30.09,29.92,29.77,6,5,2,21,8,,0.00,8,Rain,202
2012-12-23,59,57,55,52,51,48,82,79,67,29.89,29.86,29.83,6,6,6,21,16,30,0.00,7,,219
2012-12-24,55,50,46,50,47,45,100,81,67,29.89,29.73,29.59,6,6,6,16,12,,0.00,7,,191
2012-12-25,55,52,48,48,44,41,94,76,58,29.77,29.63,29.56,6,6,1,25,13,41,0.00,7,Rain,219
2012-12-26,51,48,46,46,43,39,87,77,71,30.01,29.89,29.80,6,6,6,23,14,36,0.00,7,Rain,229
2012-12-27,51,48,46,48,43,37,94,79,66,30.15,29.83,29.68,6,6,4,25,14,41,0.00,7,Rain,247
2012-12-28,53,48,44,50,45,39,94,88,81,30.30,30.24,30.18,6,6,6,13,9,,0.00,8,Rain,211
2012-12-29,55,50,46,50,45,41,93,78,63,30.18,29.95,29.80,6,6,6,23,13,36,0.00,7,Rain,199
2012-12-30,50,47,44,43,40,37,82,73,66,30.18,30.08,29.92,6,6,6,20,15,,0.00,5,,224
2012-12-31,53,50,46,45,43,41,93,80,67,30.18,29.96,29.74,6,6,6,22,14,33,0.00,7,Rain,200